PWSweather.com
Personal Weather Stations
Station Observations
PENICUIKWS
PenicuikGB

PenicuikGB

Lat: 55.830932, Lon: -3.224533000000065

Elevation: 166

Station Type: Fine Offset

http://weather.penicuik.org

High Low Average
Temperature 44.2°F6.8°C 35.8°F2.1°C 40.4°F4.7°C
Dew Point 38.5°F3.6°C 31.1°F-0.5°C 34.9°F1.6°C
Winds 8.3 mph 13.4 kmh 1.1 mph 1.8 kmh 4.0 mph WSW6.4 kmh WSW
Wind Gusts 17.4 mph28.0 kmh 1.6 mph2.6 kmh 8.0 mph12.9 kmh
Humidity 92% 69% 81%
Pressure 30.30 in1026.1 mb 29.55 in1000.7 mb -
Precipitation 0.13 in3.3 mm - -
Hour Temp Dew Point Humidity Winds Wind Gusts Pressure Precip Precip Rate Daily Precip Total
12:00 AM 36.1°F2.3°C 31.8°F-0.1°C 84% 2.5 mph WSW4.0 kmh WSW 5.4 mph8.7 kmh 30.30 in1026.1 mb 0.00 in0.0 mm 0.00 in0.0 mm 0.00 in0.0 mm
12:15 AM 36.3°F2.4°C 32.0°F0.0°C 84% 2.0 mph NW3.2 kmh NW 3.1 mph5.0 kmh 30.30 in1026.1 mb 0.00 in0.0 mm 0.00 in0.0 mm 0.00 in0.0 mm
12:30 AM 36.5°F2.5°C 32.1°F0.1°C 84% 1.9 mph SW3.1 kmh SW 3.1 mph5.0 kmh 30.29 in1025.7 mb 0.00 in0.0 mm 0.00 in0.0 mm 0.00 in0.0 mm
01:00 AM 35.8°F2.1°C 31.1°F-0.5°C 83% 1.4 mph WSW2.3 kmh WSW 3.8 mph6.1 kmh 30.30 in1026.1 mb 0.00 in0.0 mm 0.00 in0.0 mm 0.00 in0.0 mm
01:15 AM 35.8°F2.1°C 31.4°F-0.3°C 84% 1.1 mph W1.8 kmh W 1.6 mph2.6 kmh 30.29 in1025.7 mb 0.00 in0.0 mm 0.00 in0.0 mm 0.00 in0.0 mm
01:30 AM 36.3°F2.4°C 32.0°F0.0°C 84% 1.2 mph S1.9 kmh S 2.2 mph3.5 kmh 30.29 in1025.7 mb 0.00 in0.0 mm 0.00 in0.0 mm 0.00 in0.0 mm
01:45 AM 36.9°F2.7°C 32.8°F0.4°C 85% 2.3 mph WSW3.7 kmh WSW 3.1 mph5.0 kmh 30.29 in1025.7 mb 0.00 in0.0 mm 0.00 in0.0 mm 0.00 in0.0 mm
02:00 AM 37.2°F2.9°C 33.4°F0.8°C 86% 1.7 mph NW2.7 kmh NW 3.1 mph5.0 kmh 30.28 in1025.4 mb 0.00 in0.0 mm 0.00 in0.0 mm 0.00 in0.0 mm
02:15 AM 37.6°F3.1°C 34.9°F1.6°C 90% 2.0 mph SE3.2 kmh SE 6.0 mph9.7 kmh 30.28 in1025.4 mb 0.01 in0.3 mm 0.04 in1.0 mm 0.01 in0.3 mm
02:30 AM 37.6°F3.1°C 35.2°F1.8°C 91% 1.5 mph NW2.4 kmh NW 2.2 mph3.5 kmh 30.28 in1025.4 mb 0.01 in0.3 mm 0.00 in0.0 mm 0.01 in0.3 mm
02:45 AM 38.3°F3.5°C 35.9°F2.2°C 91% 2.6 mph SW4.2 kmh SW 6.9 mph11.1 kmh 30.26 in1024.7 mb 0.01 in0.3 mm 0.00 in0.0 mm 0.01 in0.3 mm
03:00 AM 38.7°F3.7°C 36.3°F2.4°C 91% 2.7 mph S4.3 kmh S 6.0 mph9.7 kmh 30.26 in1024.7 mb 0.01 in0.3 mm 0.00 in0.0 mm 0.01 in0.3 mm
03:15 AM 38.8°F3.8°C 36.7°F2.6°C 92% 2.2 mph NW3.5 kmh NW 3.8 mph6.1 kmh 30.25 in1024.4 mb 0.00 in0.0 mm 0.00 in0.0 mm 0.01 in0.3 mm
03:30 AM 39.2°F4.0°C 36.8°F2.7°C 91% 1.6 mph WSW2.6 kmh WSW 3.8 mph6.1 kmh 30.25 in1024.4 mb 0.00 in0.0 mm 0.00 in0.0 mm 0.01 in0.3 mm
03:45 AM 39.2°F4.0°C 36.5°F2.5°C 90% 3.0 mph WSW4.8 kmh WSW 6.9 mph11.1 kmh 30.25 in1024.4 mb 0.00 in0.0 mm 0.00 in0.0 mm 0.01 in0.3 mm
04:00 AM 39.9°F4.4°C 37.2°F2.9°C 90% 3.0 mph WSW4.8 kmh WSW 5.4 mph8.7 kmh 30.24 in1024.0 mb 0.00 in0.0 mm 0.00 in0.0 mm 0.01 in0.3 mm
04:15 AM 40.3°F4.6°C 37.3°F2.9°C 89% 2.4 mph NW3.9 kmh NW 3.8 mph6.1 kmh 30.24 in1024.0 mb 0.00 in0.0 mm 0.00 in0.0 mm 0.01 in0.3 mm
04:30 AM 40.3°F4.6°C 37.0°F2.8°C 88% 3.0 mph E4.8 kmh E 4.5 mph7.2 kmh 30.24 in1024.0 mb 0.00 in0.0 mm 0.00 in0.0 mm 0.01 in0.3 mm
05:00 AM 40.3°F4.6°C 36.4°F2.4°C 86% 5.0 mph NW8.0 kmh NW 9.2 mph14.8 kmh 30.22 in1023.4 mb 0.00 in0.0 mm 0.00 in0.0 mm 0.01 in0.3 mm
05:15 AM 40.8°F4.9°C 37.3°F2.9°C 87% 3.3 mph W5.3 kmh W 6.9 mph11.1 kmh 30.21 in1023.0 mb 0.00 in0.0 mm 0.00 in0.0 mm 0.01 in0.3 mm
05:30 AM 41.0°F5.0°C 36.8°F2.7°C 85% 3.8 mph SE6.1 kmh SE 5.4 mph8.7 kmh 30.21 in1023.0 mb 0.00 in0.0 mm 0.00 in0.0 mm 0.01 in0.3 mm
06:00 AM 41.0°F5.0°C 36.5°F2.5°C 84% 3.6 mph NNW5.8 kmh NNW 6.9 mph11.1 kmh 30.20 in1022.7 mb 0.00 in0.0 mm 0.00 in0.0 mm 0.01 in0.3 mm
06:15 AM 41.0°F5.0°C 36.5°F2.5°C 84% 3.3 mph S5.3 kmh S 6.0 mph9.7 kmh 30.21 in1023.0 mb 0.00 in0.0 mm 0.00 in0.0 mm 0.01 in0.3 mm
06:30 AM 41.0°F5.0°C 36.5°F2.5°C 84% 3.1 mph W5.0 kmh W 9.2 mph14.8 kmh 30.20 in1022.7 mb 0.00 in0.0 mm 0.00 in0.0 mm 0.01 in0.3 mm
06:45 AM 41.0°F5.0°C 36.5°F2.5°C 84% 4.7 mph WSW7.6 kmh WSW 9.2 mph14.8 kmh 30.21 in1023.0 mb 0.00 in0.0 mm 0.00 in0.0 mm 0.01 in0.3 mm
07:00 AM 40.8°F4.9°C 36.7°F2.6°C 85% 3.0 mph NNW4.8 kmh NNW 5.4 mph8.7 kmh 30.20 in1022.7 mb 0.00 in0.0 mm 0.00 in0.0 mm 0.01 in0.3 mm
07:15 AM 41.0°F5.0°C 36.8°F2.7°C 85% 3.9 mph NW6.3 kmh NW 8.3 mph13.4 kmh 30.20 in1022.7 mb 0.00 in0.0 mm 0.00 in0.0 mm 0.01 in0.3 mm
07:30 AM 41.0°F5.0°C 36.5°F2.5°C 84% 2.7 mph SW4.3 kmh SW 3.8 mph6.1 kmh 30.20 in1022.7 mb 0.00 in0.0 mm 0.00 in0.0 mm 0.01 in0.3 mm
07:45 AM 41.0°F5.0°C 36.5°F2.5°C 84% 3.4 mph NNW5.5 kmh NNW 5.4 mph8.7 kmh 30.19 in1022.4 mb 0.00 in0.0 mm 0.00 in0.0 mm 0.01 in0.3 mm
08:00 AM 41.2°F5.1°C 36.7°F2.6°C 84% 3.5 mph S5.6 kmh S 6.0 mph9.7 kmh 30.18 in1022.0 mb 0.00 in0.0 mm 0.00 in0.0 mm 0.01 in0.3 mm
08:15 AM 41.2°F5.1°C 36.4°F2.4°C 83% 3.5 mph N5.6 kmh N 6.9 mph11.1 kmh 30.18 in1022.0 mb 0.00 in0.0 mm 0.00 in0.0 mm 0.01 in0.3 mm
08:30 AM 41.4°F5.2°C 36.6°F2.6°C 83% 5.0 mph S8.0 kmh S 9.8 mph15.8 kmh 30.18 in1022.0 mb 0.00 in0.0 mm 0.00 in0.0 mm 0.01 in0.3 mm
08:45 AM 41.4°F5.2°C 36.3°F2.4°C 82% 4.7 mph SW7.6 kmh SW 7.6 mph12.2 kmh 30.17 in1021.7 mb 0.00 in0.0 mm 0.00 in0.0 mm 0.01 in0.3 mm
09:00 AM 41.4°F5.2°C 36.0°F2.2°C 81% 3.3 mph N5.3 kmh N 6.0 mph9.7 kmh 30.17 in1021.7 mb 0.00 in0.0 mm 0.00 in0.0 mm 0.01 in0.3 mm
09:15 AM 41.5°F5.3°C 36.2°F2.3°C 81% 3.5 mph W5.6 kmh W 7.6 mph12.2 kmh 30.16 in1021.3 mb 0.00 in0.0 mm 0.00 in0.0 mm 0.01 in0.3 mm
09:45 AM 41.5°F5.3°C 36.2°F2.3°C 81% 3.5 mph NE5.6 kmh NE 6.0 mph9.7 kmh 30.16 in1021.3 mb 0.00 in0.0 mm 0.00 in0.0 mm 0.01 in0.3 mm
10:00 AM 41.9°F5.5°C 36.2°F2.3°C 80% 5.4 mph W8.7 kmh W 7.6 mph12.2 kmh 30.15 in1021.0 mb 0.00 in0.0 mm 0.00 in0.0 mm 0.01 in0.3 mm
10:15 AM 41.5°F5.3°C 36.2°F2.3°C 81% 3.3 mph WSW5.3 kmh WSW 6.0 mph9.7 kmh 30.14 in1020.7 mb 0.00 in0.0 mm 0.00 in0.0 mm 0.01 in0.3 mm
10:30 AM 41.9°F5.5°C 36.5°F2.5°C 81% 3.9 mph WSW6.3 kmh WSW 6.0 mph9.7 kmh 30.14 in1020.7 mb 0.00 in0.0 mm 0.00 in0.0 mm 0.01 in0.3 mm
10:45 AM 44.2°F6.8°C 38.5°F3.6°C 80% 4.0 mph NNW6.4 kmh NNW 8.3 mph13.4 kmh 30.13 in1020.3 mb 0.00 in0.0 mm 0.00 in0.0 mm 0.01 in0.3 mm
11:00 AM 43.0°F6.1°C 35.6°F2.0°C 75% 4.3 mph WSW6.9 kmh WSW 8.3 mph13.4 kmh 30.14 in1020.7 mb 0.00 in0.0 mm 0.00 in0.0 mm 0.01 in0.3 mm
11:15 AM 42.8°F6.0°C 35.8°F2.1°C 76% 4.0 mph NNW6.4 kmh NNW 7.6 mph12.2 kmh 30.13 in1020.3 mb 0.00 in0.0 mm 0.00 in0.0 mm 0.01 in0.3 mm
11:45 AM 42.4°F5.8°C 36.7°F2.6°C 80% 4.1 mph NNW6.6 kmh NNW 6.0 mph9.7 kmh 30.12 in1020.0 mb 0.00 in0.0 mm 0.00 in0.0 mm 0.01 in0.3 mm
12:00 PM 42.4°F5.8°C 36.4°F2.4°C 79% 3.0 mph N4.8 kmh N 5.4 mph8.7 kmh 30.12 in1020.0 mb 0.00 in0.0 mm 0.00 in0.0 mm 0.01 in0.3 mm
12:15 PM 42.8°F6.0°C 36.4°F2.4°C 78% 3.4 mph SW5.5 kmh SW 9.8 mph15.8 kmh 30.10 in1019.3 mb 0.00 in0.0 mm 0.00 in0.0 mm 0.01 in0.3 mm
12:30 PM 43.2°F6.2°C 35.8°F2.1°C 75% 4.2 mph WSW6.8 kmh WSW 6.9 mph11.1 kmh 30.09 in1019.0 mb 0.00 in0.0 mm 0.00 in0.0 mm 0.01 in0.3 mm
12:45 PM 43.5°F6.4°C 35.8°F2.1°C 74% 4.3 mph WNW6.9 kmh WNW 7.6 mph12.2 kmh 30.09 in1019.0 mb 0.00 in0.0 mm 0.00 in0.0 mm 0.01 in0.3 mm
01:00 PM 43.7°F6.5°C 35.3°F1.8°C 72% 3.7 mph WSW6.0 kmh WSW 7.6 mph12.2 kmh 30.07 in1018.3 mb 0.00 in0.0 mm 0.00 in0.0 mm 0.01 in0.3 mm
01:15 PM 43.5°F6.4°C 35.1°F1.7°C 72% 4.4 mph WNW7.1 kmh WNW 9.2 mph14.8 kmh 30.05 in1017.6 mb 0.00 in0.0 mm 0.00 in0.0 mm 0.01 in0.3 mm
01:30 PM 43.9°F6.6°C 35.4°F1.9°C 72% 3.6 mph W5.8 kmh W 6.0 mph9.7 kmh 30.04 in1017.3 mb 0.00 in0.0 mm 0.00 in0.0 mm 0.01 in0.3 mm
01:45 PM 43.9°F6.6°C 35.1°F1.7°C 71% 5.1 mph NW8.2 kmh NW 9.8 mph15.8 kmh 30.03 in1016.9 mb 0.00 in0.0 mm 0.00 in0.0 mm 0.01 in0.3 mm
02:00 PM 43.5°F6.4°C 34.8°F1.6°C 71% 4.4 mph NNE7.1 kmh NNE 9.8 mph15.8 kmh 30.01 in1016.3 mb 0.00 in0.0 mm 0.00 in0.0 mm 0.01 in0.3 mm
02:15 PM 43.3°F6.3°C 34.6°F1.4°C 71% 6.2 mph NW10.0 kmh NW 10.7 mph17.2 kmh 29.99 in1015.6 mb 0.00 in0.0 mm 0.00 in0.0 mm 0.01 in0.3 mm
02:30 PM 43.2°F6.2°C 34.1°F1.2°C 70% 6.8 mph NW10.9 kmh NW 13.6 mph21.9 kmh 29.98 in1015.2 mb 0.00 in0.0 mm 0.00 in0.0 mm 0.01 in0.3 mm
02:45 PM 43.0°F6.1°C 33.5°F0.8°C 69% 5.7 mph NW9.2 kmh NW 10.7 mph17.2 kmh 29.97 in1014.9 mb 0.00 in0.0 mm 0.00 in0.0 mm 0.01 in0.3 mm
03:00 PM 42.8°F6.0°C 33.7°F0.9°C 70% 6.7 mph NNW10.8 kmh NNW 10.7 mph17.2 kmh 29.97 in1014.9 mb 0.00 in0.0 mm 0.00 in0.0 mm 0.01 in0.3 mm
03:30 PM 42.4°F5.8°C 33.4°F0.8°C 70% 5.9 mph E9.5 kmh E 9.2 mph14.8 kmh 29.96 in1014.6 mb 0.00 in0.0 mm 0.00 in0.0 mm 0.01 in0.3 mm
03:45 PM 42.3°F5.7°C 33.2°F0.7°C 70% 5.1 mph W8.2 kmh W 7.6 mph12.2 kmh 29.96 in1014.6 mb 0.00 in0.0 mm 0.00 in0.0 mm 0.01 in0.3 mm
04:00 PM 41.7°F5.4°C 32.7°F0.4°C 70% 5.2 mph WSW8.4 kmh WSW 7.6 mph12.2 kmh 29.95 in1014.2 mb 0.00 in0.0 mm 0.00 in0.0 mm 0.01 in0.3 mm
04:15 PM 41.5°F5.3°C 32.9°F0.5°C 71% 3.9 mph NW6.3 kmh NW 6.9 mph11.1 kmh 29.93 in1013.5 mb 0.00 in0.0 mm 0.00 in0.0 mm 0.01 in0.3 mm
04:30 PM 41.4°F5.2°C 33.0°F0.6°C 72% 3.8 mph N6.1 kmh N 7.6 mph12.2 kmh 29.92 in1013.2 mb 0.00 in0.0 mm 0.00 in0.0 mm 0.01 in0.3 mm
04:45 PM 41.2°F5.1°C 33.2°F0.7°C 73% 5.7 mph WNW9.2 kmh WNW 8.3 mph13.4 kmh 29.91 in1012.9 mb 0.00 in0.0 mm 0.00 in0.0 mm 0.01 in0.3 mm
05:00 PM 40.8°F4.9°C 33.5°F0.8°C 75% 4.9 mph SW7.9 kmh SW 9.2 mph14.8 kmh 29.89 in1012.2 mb 0.00 in0.0 mm 0.00 in0.0 mm 0.01 in0.3 mm
05:15 PM 40.6°F4.8°C 33.3°F0.7°C 75% 5.5 mph SSW8.9 kmh SSW 9.2 mph14.8 kmh 29.89 in1012.2 mb 0.00 in0.0 mm 0.00 in0.0 mm 0.01 in0.3 mm
05:30 PM 40.3°F4.6°C 33.3°F0.7°C 76% 4.2 mph NNW6.8 kmh NNW 6.0 mph9.7 kmh 29.87 in1011.5 mb 0.00 in0.0 mm 0.00 in0.0 mm 0.01 in0.3 mm
05:45 PM 39.9°F4.4°C 33.0°F0.6°C 76% 5.1 mph SE8.2 kmh SE 8.3 mph13.4 kmh 29.87 in1011.5 mb 0.00 in0.0 mm 0.00 in0.0 mm 0.01 in0.3 mm
06:00 PM 39.9°F4.4°C 33.3°F0.7°C 77% 6.2 mph W10.0 kmh W 10.7 mph17.2 kmh 29.85 in1010.8 mb 0.00 in0.0 mm 0.00 in0.0 mm 0.01 in0.3 mm
06:15 PM 39.9°F4.4°C 33.3°F0.7°C 77% 5.0 mph N8.0 kmh N 9.8 mph15.8 kmh 29.85 in1010.8 mb 0.00 in0.0 mm 0.00 in0.0 mm 0.01 in0.3 mm
06:30 PM 39.9°F4.4°C 33.3°F0.7°C 77% 6.1 mph S9.8 kmh S 8.3 mph13.4 kmh 29.83 in1010.2 mb 0.00 in0.0 mm 0.00 in0.0 mm 0.01 in0.3 mm
06:45 PM 39.9°F4.4°C 33.0°F0.6°C 76% 5.2 mph WSW8.4 kmh WSW 13.0 mph20.9 kmh 29.81 in1009.5 mb 0.00 in0.0 mm 0.00 in0.0 mm 0.01 in0.3 mm
07:00 PM 39.9°F4.4°C 33.0°F0.6°C 76% 6.0 mph WSW9.7 kmh WSW 10.7 mph17.2 kmh 29.81 in1009.5 mb 0.00 in0.0 mm 0.00 in0.0 mm 0.01 in0.3 mm
07:15 PM 39.9°F4.4°C 33.3°F0.7°C 77% 4.5 mph NNW7.2 kmh NNW 10.7 mph17.2 kmh 29.79 in1008.8 mb 0.00 in0.0 mm 0.00 in0.0 mm 0.01 in0.3 mm
07:30 PM 39.7°F4.3°C 33.8°F1.0°C 79% 5.6 mph E9.0 kmh E 9.2 mph14.8 kmh 29.76 in1007.8 mb 0.00 in0.0 mm 0.00 in0.0 mm 0.01 in0.3 mm
07:45 PM 39.0°F3.9°C 34.0°F1.1°C 82% 3.2 mph WNW5.1 kmh WNW 6.9 mph11.1 kmh 29.75 in1007.5 mb 0.00 in0.0 mm 0.00 in0.0 mm 0.01 in0.3 mm
08:00 PM 39.7°F4.3°C 34.4°F1.3°C 81% 5.7 mph SSW9.2 kmh SSW 10.7 mph17.2 kmh 29.73 in1006.8 mb 0.00 in0.0 mm 0.00 in0.0 mm 0.01 in0.3 mm
08:15 PM 39.7°F4.3°C 34.1°F1.2°C 80% 4.1 mph NW6.6 kmh NW 8.3 mph13.4 kmh 29.72 in1006.4 mb 0.00 in0.0 mm 0.00 in0.0 mm 0.01 in0.3 mm
08:30 PM 39.7°F4.3°C 33.8°F1.0°C 79% 4.2 mph WNW6.8 kmh WNW 8.3 mph13.4 kmh 29.70 in1005.8 mb 0.00 in0.0 mm 0.00 in0.0 mm 0.01 in0.3 mm
08:45 PM 39.9°F4.4°C 33.6°F0.9°C 78% 8.3 mph N13.4 kmh N 16.8 mph27.0 kmh 29.69 in1005.4 mb 0.00 in0.0 mm 0.00 in0.0 mm 0.01 in0.3 mm
09:00 PM 39.9°F4.4°C 33.6°F0.9°C 78% 7.1 mph NNW11.4 kmh NNW 15.2 mph24.5 kmh 29.69 in1005.4 mb 0.00 in0.0 mm 0.00 in0.0 mm 0.01 in0.3 mm
09:15 PM 39.7°F4.3°C 33.8°F1.0°C 79% 5.1 mph W8.2 kmh W 7.6 mph12.2 kmh 29.67 in1004.7 mb 0.00 in0.0 mm 0.00 in0.0 mm 0.01 in0.3 mm
09:30 PM 39.7°F4.3°C 34.7°F1.5°C 82% 7.0 mph WSW11.3 kmh WSW 17.4 mph28.0 kmh 29.66 in1004.4 mb 0.00 in0.0 mm 0.00 in0.0 mm 0.01 in0.3 mm
09:45 PM 39.7°F4.3°C 35.0°F1.7°C 83% 6.5 mph NW10.5 kmh NW 10.7 mph17.2 kmh 29.65 in1004.1 mb 0.01 in0.3 mm 0.04 in1.0 mm 0.02 in0.5 mm
10:00 PM 39.0°F3.9°C 34.9°F1.6°C 85% 5.8 mph WSW9.3 kmh WSW 11.4 mph18.3 kmh 29.64 in1003.7 mb 0.02 in0.5 mm 0.01 in0.3 mm 0.04 in1.0 mm
10:15 PM 39.0°F3.9°C 35.2°F1.8°C 86% 5.6 mph NW9.0 kmh NW 9.8 mph15.8 kmh 29.63 in1003.4 mb 0.04 in1.0 mm 0.08 in2.0 mm 0.05 in1.3 mm
10:30 PM 38.8°F3.8°C 35.3°F1.8°C 87% 5.0 mph NNW8.0 kmh NNW 6.9 mph11.1 kmh 29.63 in1003.4 mb 0.05 in1.3 mm 0.04 in1.0 mm 0.06 in1.5 mm
10:45 PM 38.7°F3.7°C 35.4°F1.9°C 88% 5.9 mph W9.5 kmh W 10.7 mph17.2 kmh 29.62 in1003.0 mb 0.06 in1.5 mm 0.04 in1.0 mm 0.08 in2.0 mm
11:00 PM 38.5°F3.6°C 35.5°F1.9°C 89% 5.1 mph W8.2 kmh W 11.4 mph18.3 kmh 29.60 in1002.4 mb 0.06 in1.5 mm 0.00 in0.0 mm 0.09 in2.3 mm
11:15 PM 38.5°F3.6°C 35.5°F1.9°C 89% 4.9 mph WSW7.9 kmh WSW 9.2 mph14.8 kmh 29.59 in1002.0 mb 0.07 in1.8 mm 0.04 in1.0 mm 0.12 in3.0 mm
11:30 PM 38.7°F3.7°C 36.0°F2.2°C 90% 4.5 mph NNW7.2 kmh NNW 8.3 mph13.4 kmh 29.57 in1001.4 mb 0.07 in1.8 mm 0.00 in0.0 mm 0.13 in3.3 mm
11:45 PM 38.8°F3.8°C 36.2°F2.3°C 90% 4.9 mph NNW7.9 kmh NNW 6.9 mph11.1 kmh 29.55 in1000.7 mb 0.05 in1.3 mm 0.00 in0.0 mm 0.13 in3.3 mm